createdAt,value
2019-03-23T00:01:10.035Z,9.30
2019-03-23T00:06:05.739Z,9.20
2019-03-23T00:11:10.948Z,9.00
2019-03-23T00:16:08.475Z,8.90
2019-03-23T00:21:08.983Z,8.80
2019-03-23T00:26:08.727Z,9.00
2019-03-23T00:31:08.295Z,9.00
2019-03-23T00:36:09.747Z,9.00
2019-03-23T00:41:13.317Z,8.80
2019-03-23T00:46:09.109Z,8.70
2019-03-23T00:51:07.188Z,8.70
2019-03-23T00:56:05.743Z,8.70
2019-03-23T01:01:11.518Z,8.70
2019-03-23T01:06:07.286Z,8.60
2019-03-23T01:11:05.614Z,8.70
2019-03-23T01:16:03.918Z,8.70
2019-03-23T01:21:05.651Z,8.50
2019-03-23T01:26:05.555Z,8.40
2019-03-23T01:31:07.317Z,8.50
2019-03-23T01:36:05.986Z,8.40
2019-03-23T01:41:05.095Z,8.20
2019-03-23T01:46:00.389Z,8.20
2019-03-23T01:51:15.141Z,8.10
2019-03-23T01:55:59.172Z,8.00
2019-03-23T02:00:53.369Z,8.10
2019-03-23T02:05:53.867Z,8.10
2019-03-23T02:10:48.876Z,8.00
2019-03-23T02:15:46.197Z,7.90
2019-03-23T02:20:44.065Z,7.70
2019-03-23T02:25:43.576Z,7.60
2019-03-23T02:30:41.634Z,7.50
2019-03-23T02:35:36.473Z,7.50
2019-03-23T02:40:33.335Z,7.40
2019-03-23T02:45:30.308Z,7.30
2019-03-23T02:50:26.082Z,7.30
2019-03-23T02:55:27.505Z,7.30
2019-03-23T03:00:27.395Z,7.30
2019-03-23T03:05:24.241Z,7.40
2019-03-23T03:10:41.581Z,7.30
2019-03-23T03:15:36.806Z,7.20
2019-03-23T03:20:31.728Z,7.10
2019-03-23T03:25:28.971Z,7.00
2019-03-23T03:30:24.476Z,7.00
2019-03-23T03:35:18.850Z,7.00
2019-03-23T03:40:18.212Z,7.00
2019-03-23T03:45:15.039Z,6.80
2019-03-23T03:50:10.970Z,6.60
2019-03-23T03:55:08.286Z,6.70
2019-03-23T04:00:07.230Z,6.70
2019-03-23T04:05:02.379Z,6.60
2019-03-23T04:09:57.470Z,6.60
2019-03-23T04:14:52.773Z,6.50
2019-03-23T04:19:47.141Z,6.50
2019-03-23T04:24:44.382Z,6.50
2019-03-23T04:29:39.890Z,6.50
2019-03-23T04:34:36.429Z,6.50
2019-03-23T04:39:35.563Z,6.40
2019-03-23T04:44:30.843Z,6.30
2019-03-23T04:49:26.771Z,6.40
2019-03-23T04:54:21.500Z,6.50
2019-03-23T04:59:16.346Z,6.60
2019-03-23T05:04:15.364Z,6.50
2019-03-23T05:09:10.883Z,6.50
2019-03-23T05:14:09.170Z,6.60
2019-03-23T05:19:04.247Z,6.50
2019-03-23T05:24:01.003Z,6.50
2019-03-23T05:28:56.340Z,6.60
2019-03-23T05:33:53.963Z,6.80
2019-03-23T05:38:52.626Z,6.90
2019-03-23T05:43:50.024Z,7.10
2019-03-23T05:48:44.196Z,7.40
2019-03-23T05:53:43.686Z,7.80
2019-03-23T05:58:46.980Z,8.30
2019-03-23T06:03:48.247Z,9.10
2019-03-23T06:08:41.847Z,10.80
2019-03-23T06:13:37.556Z,11.90
2019-03-23T06:18:32.661Z,13.30
2019-03-23T06:23:31.232Z,15.30
2019-03-23T06:28:26.701Z,17.20
2019-03-23T06:33:21.359Z,18.90
2019-03-23T06:38:19.938Z,20.00
2019-03-23T06:43:16.543Z,21.30
2019-03-23T06:48:13.633Z,21.90
2019-03-23T06:53:15.673Z,22.70
2019-03-23T06:58:11.220Z,22.80
2019-03-23T07:03:07.931Z,23.40
2019-03-23T07:08:05.987Z,24.90
2019-03-23T07:13:00.401Z,26.30
2019-03-23T07:18:01.946Z,26.80
2019-03-23T07:22:55.481Z,27.50
2019-03-23T07:27:49.857Z,28.70
2019-03-23T07:32:51.551Z,28.00
2019-03-23T07:37:47.636Z,28.60
2019-03-23T07:42:47.672Z,30.20
2019-03-23T07:47:48.558Z,31.50
2019-03-23T07:52:51.092Z,32.80
2019-03-23T07:57:45.459Z,33.60
2019-03-23T08:02:40.578Z,33.70
2019-03-23T08:07:36.863Z,32.90
2019-03-23T08:12:31.327Z,32.40
2019-03-23T08:17:30.856Z,33.70
2019-03-23T08:22:25.256Z,34.60
2019-03-23T08:27:20.413Z,34.50
2019-03-23T08:32:21.397Z,35.40
2019-03-23T08:37:15.078Z,36.50
2019-03-23T08:42:26.408Z,39.40
2019-03-23T08:47:21.632Z,40.20
2019-03-23T08:52:18.824Z,39.10
2019-03-23T08:57:13.797Z,37.70
2019-03-23T09:02:09.056Z,36.00
2019-03-23T09:07:10.213Z,33.80
2019-03-23T09:12:06.405Z,33.10
2019-03-23T09:17:08.041Z,33.40
2019-03-23T09:22:02.760Z,32.70
2019-03-23T09:26:58.086Z,34.60
2019-03-23T09:31:54.597Z,39.00
2019-03-23T09:36:49.894Z,41.30
2019-03-23T09:41:48.471Z,43.00
2019-03-23T09:46:44.443Z,44.70
2019-03-23T09:51:39.081Z,45.40
2019-03-23T09:56:38.392Z,47.30
2019-03-23T10:01:37.388Z,48.10
2019-03-23T10:06:35.208Z,48.90
2019-03-23T10:11:30.924Z,49.50
2019-03-23T10:16:27.355Z,50.00
2019-03-23T10:21:25.300Z,49.90
2019-03-23T10:26:23.147Z,49.20
2019-03-23T10:31:19.237Z,49.50
2019-03-23T10:36:16.768Z,49.70
2019-03-23T10:41:14.215Z,50.30
2019-03-23T10:46:09.216Z,49.50
2019-03-23T10:51:06.498Z,49.30
2019-03-23T10:56:04.736Z,49.00
2019-03-23T11:01:03.427Z,48.90
2019-03-23T11:06:00.164Z,48.80
2019-03-23T11:10:56.492Z,48.50
2019-03-23T11:15:52.092Z,48.10
2019-03-23T11:20:49.579Z,48.30
2019-03-23T11:25:44.624Z,47.60
2019-03-23T11:30:42.982Z,47.40
2019-03-23T11:35:42.230Z,47.30
2019-03-23T11:40:41.246Z,46.20
2019-03-23T11:45:47.882Z,43.80
2019-03-23T11:50:42.759Z,39.30
2019-03-23T11:55:38.065Z,34.40
2019-03-23T12:00:35.677Z,31.10
2019-03-23T12:05:31.703Z,28.90
2019-03-23T12:10:28.730Z,27.80
2019-03-23T12:15:34.024Z,26.90
2019-03-23T12:20:26.578Z,26.30
2019-03-23T12:25:23.604Z,25.80
2019-03-23T12:30:21.299Z,25.50
2019-03-23T12:35:17.235Z,25.10
2019-03-23T12:40:16.422Z,24.60
2019-03-23T12:45:12.414Z,24.40
2019-03-23T12:50:11.731Z,24.30
2019-03-23T12:55:11.056Z,24.20
2019-03-23T13:00:15.442Z,24.20
2019-03-23T13:05:12.439Z,24.20
2019-03-23T13:10:12.078Z,24.20
2019-03-23T13:15:09.352Z,24.10
2019-03-23T13:20:08.815Z,24.00
2019-03-23T13:25:08.929Z,23.90
2019-03-23T13:30:06.480Z,23.80
2019-03-23T13:35:14.101Z,23.70
2019-03-23T13:40:12.283Z,23.50
2019-03-23T13:45:09.402Z,23.40
2019-03-23T13:50:04.988Z,23.30
2019-03-23T13:55:04.357Z,23.30
2019-03-23T14:00:00.281Z,23.20
2019-03-23T14:04:55.592Z,23.20
2019-03-23T14:09:57.926Z,23.10
2019-03-23T14:14:51.913Z,22.90
2019-03-23T14:19:49.103Z,22.80
2019-03-23T14:24:51.695Z,22.50
2019-03-23T14:29:48.724Z,22.50
2019-03-23T14:34:47.266Z,22.30
2019-03-23T14:39:47.442Z,22.20
2019-03-23T14:44:43.873Z,22.10
2019-03-23T14:49:51.433Z,22.00
2019-03-23T14:54:48.889Z,21.90
2019-03-23T14:59:49.431Z,21.70
2019-03-23T15:04:51.505Z,21.60
2019-03-23T15:09:47.091Z,21.50
2019-03-23T15:14:47.073Z,21.40
2019-03-23T15:19:48.839Z,21.30
2019-03-23T15:24:44.653Z,21.10
2019-03-23T15:29:42.549Z,21.00
2019-03-23T15:34:40.824Z,20.90
2019-03-23T15:39:37.630Z,20.70
2019-03-23T15:44:40.287Z,20.60
2019-03-23T15:49:36.357Z,20.50
2019-03-23T15:54:33.932Z,20.40
2019-03-23T15:59:32.494Z,20.20
2019-03-23T16:04:34.488Z,20.10
2019-03-23T16:09:36.613Z,20.00
2019-03-23T16:14:49.137Z,19.80
2019-03-23T16:19:46.899Z,19.70
2019-03-23T16:24:43.725Z,19.50
2019-03-23T16:29:39.839Z,19.30
2019-03-23T16:34:40.133Z,19.10
2019-03-23T16:39:41.653Z,19.00
2019-03-23T16:44:38.358Z,18.80
2019-03-23T16:49:36.136Z,18.60
2019-03-23T16:54:34.625Z,18.40
2019-03-23T16:59:32.808Z,18.30
2019-03-23T17:04:31.764Z,18.00
2019-03-23T17:09:29.125Z,17.80
2019-03-23T17:14:24.411Z,17.40
2019-03-23T17:19:23.881Z,17.10
2019-03-23T17:24:22.061Z,16.70
2019-03-23T17:29:19.589Z,16.40
2019-03-23T17:34:20.326Z,16.10
2019-03-23T17:39:20.939Z,15.90
2019-03-23T17:44:22.755Z,15.60
2019-03-23T17:49:24.240Z,15.40
2019-03-23T17:54:25.987Z,15.20
2019-03-23T17:59:24.793Z,15.10
2019-03-23T18:04:20.981Z,14.80
2019-03-23T18:09:17.922Z,14.60
2019-03-23T18:14:15.237Z,14.40
2019-03-23T18:19:12.008Z,14.30
2019-03-23T18:24:07.869Z,14.20
2019-03-23T18:29:04.537Z,14.00
2019-03-23T18:34:03.436Z,14.00
2019-03-23T18:38:58.139Z,13.90
2019-03-23T18:43:56.404Z,13.80
2019-03-23T18:48:57.156Z,13.70
2019-03-23T18:53:53.254Z,13.70
2019-03-23T18:58:50.214Z,13.60
2019-03-23T19:03:46.504Z,13.50
2019-03-23T19:08:46.558Z,13.40
2019-03-23T19:13:47.609Z,13.30
2019-03-23T19:18:44.882Z,13.20
2019-03-23T19:23:41.107Z,13.10
2019-03-23T19:28:38.633Z,13.10
2019-03-23T19:33:43.642Z,13.20
2019-03-23T19:38:39.864Z,13.10
2019-03-23T19:43:47.989Z,13.10
2019-03-23T19:48:39.888Z,13.00
2019-03-23T19:53:40.633Z,12.80
2019-03-23T19:58:37.228Z,12.80
2019-03-23T20:03:35.601Z,12.80
2019-03-23T20:08:33.015Z,12.70
2019-03-23T20:13:34.618Z,12.50
2019-03-23T20:18:39.691Z,12.30
2019-03-23T20:23:35.079Z,12.10
2019-03-23T20:28:30.075Z,11.90
2019-03-23T20:33:28.693Z,11.80
2019-03-23T20:38:28.394Z,11.70
2019-03-23T20:43:25.139Z,11.40
2019-03-23T20:48:20.909Z,11.30
2019-03-23T20:53:18.597Z,11.20
2019-03-23T20:58:14.407Z,11.10
2019-03-23T21:03:13.307Z,11.10
2019-03-23T21:08:11.794Z,10.90
2019-03-23T21:13:07.172Z,10.90
2019-03-23T21:18:06.806Z,10.80
2019-03-23T21:23:03.826Z,10.70
2019-03-23T21:28:00.843Z,10.60
2019-03-23T21:32:59.741Z,10.60
2019-03-23T21:37:55.788Z,10.50
2019-03-23T21:42:58.655Z,10.40
2019-03-23T21:47:55.208Z,10.50
2019-03-23T21:52:53.117Z,10.70
2019-03-23T21:57:57.035Z,10.90
2019-03-23T22:02:58.341Z,11.10
2019-03-23T22:07:55.933Z,11.20
2019-03-23T22:12:55.138Z,11.30
2019-03-23T22:17:50.395Z,11.30
2019-03-23T22:23:12.981Z,11.30
2019-03-23T22:28:08.902Z,11.20
2019-03-23T22:33:04.884Z,11.00
2019-03-23T22:37:59.977Z,10.80
2019-03-23T22:42:58.093Z,10.90
2019-03-23T22:47:54.863Z,10.70
2019-03-23T22:52:50.854Z,10.70
2019-03-23T22:57:50.911Z,10.60
2019-03-23T23:02:48.414Z,10.70
2019-03-23T23:07:51.656Z,10.70
2019-03-23T23:12:48.528Z,10.70
2019-03-23T23:17:56.710Z,10.70
2019-03-23T23:22:47.574Z,10.70
2019-03-23T23:27:44.222Z,10.70
2019-03-23T23:32:39.467Z,10.70
2019-03-23T23:37:36.062Z,10.50
2019-03-23T23:42:34.122Z,10.50
2019-03-23T23:47:29.366Z,10.40
2019-03-23T23:52:26.126Z,10.30
2019-03-23T23:57:22.524Z,10.20
